createdAt,value
2022-08-25T00:00:22.663Z,101482.80
2022-08-25T00:03:05.633Z,101484.60
2022-08-25T00:05:33.734Z,101487.00
2022-08-25T00:08:06.166Z,101482.40
2022-08-25T00:10:37.711Z,101483.00
2022-08-25T00:13:07.150Z,101481.60
2022-08-25T00:15:35.940Z,101477.80
2022-08-25T00:18:05.706Z,101476.00
2022-08-25T00:20:48.805Z,101477.20
2022-08-25T00:23:18.246Z,101473.80
2022-08-25T00:25:46.291Z,101473.40
2022-08-25T00:28:16.900Z,101467.60
2022-08-25T00:30:45.797Z,101470.40
2022-08-25T00:33:14.109Z,101465.40
2022-08-25T00:35:43.871Z,101465.40
2022-08-25T00:38:12.889Z,101466.60
2022-08-25T00:40:42.652Z,101461.20
2022-08-25T00:43:12.154Z,101456.40
2022-08-25T00:45:40.808Z,101452.60
2022-08-25T00:48:08.652Z,101454.80
2022-08-25T00:50:36.608Z,101454.80
2022-08-25T00:53:05.978Z,101454.20
2022-08-25T00:55:39.439Z,101457.40
2022-08-25T00:58:18.659Z,101459.00
2022-08-25T01:00:53.063Z,101459.20
2022-08-25T01:03:23.935Z,101459.60
2022-08-25T01:06:04.357Z,101461.00
2022-08-25T01:08:32.998Z,101462.00
2022-08-25T01:11:05.850Z,101458.20
2022-08-25T01:13:47.411Z,101460.40
2022-08-25T01:16:17.232Z,101462.40
2022-08-25T01:18:47.153Z,101460.40
2022-08-25T01:21:21.124Z,101454.40
2022-08-25T01:23:50.782Z,101458.20
2022-08-25T01:26:33.629Z,101461.00
2022-08-25T01:29:22.915Z,101460.40
2022-08-25T01:31:57.844Z,101460.20
2022-08-25T01:34:29.957Z,101453.40
2022-08-25T01:36:59.377Z,101451.60
2022-08-25T01:39:31.807Z,101455.60
2022-08-25T01:42:29.259Z,101453.00
2022-08-25T01:44:57.754Z,101453.80
2022-08-25T01:47:25.746Z,101449.40
2022-08-25T01:49:53.622Z,101449.60
2022-08-25T01:52:58.189Z,101443.40
2022-08-25T01:55:27.331Z,101448.40
2022-08-25T01:57:56.355Z,101451.80
2022-08-25T02:00:25.394Z,101454.20
2022-08-25T02:02:54.145Z,101450.80
2022-08-25T02:05:23.975Z,101448.80
2022-08-25T02:07:51.992Z,101444.80
2022-08-25T02:10:19.917Z,101448.20
2022-08-25T02:12:47.694Z,101439.20
2022-08-25T02:15:15.547Z,101437.20
2022-08-25T02:17:43.424Z,101436.60
2022-08-25T02:20:11.437Z,101437.00
2022-08-25T02:22:39.324Z,101447.80
2022-08-25T02:25:11.679Z,101447.20
2022-08-25T02:27:39.627Z,101450.00
2022-08-25T02:30:08.190Z,101449.60
2022-08-25T02:32:36.098Z,101452.60
2022-08-25T02:35:05.179Z,101458.00
2022-08-25T02:37:33.367Z,101457.00
2022-08-25T02:40:01.525Z,101459.60
2022-08-25T02:42:30.033Z,101456.60
2022-08-25T02:44:58.013Z,101445.40
2022-08-25T02:47:27.165Z,101442.00
2022-08-25T02:49:55.878Z,101442.80
2022-08-25T02:52:23.763Z,101438.60
2022-08-25T02:54:51.658Z,101440.20
2022-08-25T02:57:19.481Z,101434.60
2022-08-25T02:59:48.581Z,101435.20
2022-08-25T03:02:16.967Z,101435.20
2022-08-25T03:04:45.343Z,101433.20
2022-08-25T03:07:13.839Z,101426.20
2022-08-25T03:09:43.459Z,101425.80
2022-08-25T03:12:12.714Z,101427.20
2022-08-25T03:14:40.955Z,101425.20
2022-08-25T03:17:11.099Z,101431.00
2022-08-25T03:19:39.085Z,101433.80
2022-08-25T03:22:06.964Z,101425.20
2022-08-25T03:24:34.851Z,101422.40
2022-08-25T03:27:02.678Z,101425.80
2022-08-25T03:29:33.680Z,101427.20
2022-08-25T03:32:01.786Z,101424.80
2022-08-25T03:34:31.275Z,101418.80
2022-08-25T03:37:00.020Z,101419.40
2022-08-25T03:39:29.213Z,101418.00
2022-08-25T03:41:57.071Z,101412.40
2022-08-25T03:44:24.945Z,101411.00
2022-08-25T03:46:53.055Z,101413.20
2022-08-25T03:49:23.756Z,101411.80
2022-08-25T03:51:55.099Z,101410.80
2022-08-25T03:54:26.309Z,101419.20
2022-08-25T03:56:55.014Z,101423.40
2022-08-25T03:59:23.203Z,101427.20
2022-08-25T04:01:55.175Z,101426.80
2022-08-25T04:04:24.066Z,101427.80
2022-08-25T04:06:53.132Z,101432.60
2022-08-25T04:09:21.487Z,101432.00
2022-08-25T04:11:52.956Z,101432.80
2022-08-25T04:14:23.906Z,101433.80
2022-08-25T04:16:53.153Z,101440.00
2022-08-25T04:19:22.230Z,101435.20
2022-08-25T04:21:50.304Z,101430.60
2022-08-25T04:24:19.469Z,101428.00
2022-08-25T04:26:51.047Z,101428.60
2022-08-25T04:29:23.517Z,101430.40
2022-08-25T04:31:54.335Z,101431.20
2022-08-25T04:34:30.635Z,101429.60
2022-08-25T04:37:07.912Z,101421.40
2022-08-25T04:39:35.980Z,101422.00
2022-08-25T04:42:04.238Z,101420.00
2022-08-25T04:44:32.798Z,101418.80
2022-08-25T04:47:01.226Z,101424.00
2022-08-25T04:49:29.590Z,101417.80
2022-08-25T04:51:58.060Z,101411.60
2022-08-25T04:54:28.328Z,101409.40
2022-08-25T04:56:58.749Z,101406.20
2022-08-25T04:59:30.086Z,101409.80
2022-08-25T05:02:03.301Z,101409.40
2022-08-25T05:04:34.785Z,101405.00
2022-08-25T05:07:05.121Z,101399.40
2022-08-25T05:09:35.024Z,101397.60
2022-08-25T05:12:04.840Z,101398.00
2022-08-25T05:14:34.346Z,101393.80
2022-08-25T05:17:02.944Z,101391.80
2022-08-25T05:19:31.703Z,101393.20
2022-08-25T05:21:59.503Z,101396.80
2022-08-25T05:24:28.310Z,101396.80
2022-08-25T05:26:57.170Z,101396.80
2022-08-25T05:29:25.248Z,101399.40
2022-08-25T05:31:54.061Z,101395.40
2022-08-25T05:34:22.424Z,101400.40
2022-08-25T05:36:51.326Z,101396.80
2022-08-25T05:39:19.274Z,101398.00
2022-08-25T05:41:47.269Z,101394.00
2022-08-25T05:44:18.007Z,101395.40
2022-08-25T05:46:48.916Z,101395.20
2022-08-25T05:49:23.644Z,101399.60
2022-08-25T05:52:20.056Z,101393.60
2022-08-25T05:55:06.502Z,101390.80
2022-08-25T05:58:03.749Z,101392.20
2022-08-25T06:03:40.120Z,101399.00
2022-08-25T06:06:12.195Z,101402.20
2022-08-25T06:08:44.469Z,101404.80
2022-08-25T06:11:14.696Z,101406.60
2022-08-25T06:13:43.523Z,101409.80
2022-08-25T06:16:12.308Z,101413.60
2022-08-25T06:18:40.251Z,101406.00
2022-08-25T06:21:14.925Z,101408.40
2022-08-25T06:23:42.884Z,101408.60
2022-08-25T06:26:20.881Z,101409.00
2022-08-25T06:28:52.726Z,101407.00
2022-08-25T06:31:22.654Z,101405.40
2022-08-25T06:33:52.262Z,101405.40
2022-08-25T06:36:20.748Z,101412.40
2022-08-25T06:38:48.846Z,101412.20
2022-08-25T06:41:16.798Z,101413.80
2022-08-25T06:43:49.902Z,101423.20
2022-08-25T06:46:31.742Z,101425.20
2022-08-25T06:49:06.862Z,101425.40
2022-08-25T06:51:36.345Z,101426.20
2022-08-25T06:54:06.926Z,101422.20
2022-08-25T06:56:36.094Z,101420.80
2022-08-25T06:59:06.837Z,101415.40
2022-08-25T07:01:36.366Z,101422.00
2022-08-25T07:04:11.851Z,101431.60
2022-08-25T07:06:41.643Z,101431.60
2022-08-25T07:09:12.247Z,101435.60
2022-08-25T07:11:45.851Z,101439.20
2022-08-25T07:14:16.950Z,101448.40
2022-08-25T07:16:49.412Z,101447.20
2022-08-25T07:19:21.210Z,101446.20
2022-08-25T07:21:53.291Z,101451.80
2022-08-25T07:24:23.430Z,101452.80
2022-08-25T07:26:52.201Z,101453.00
2022-08-25T07:29:31.907Z,101462.40
2022-08-25T07:32:02.809Z,101461.80
2022-08-25T07:34:52.474Z,101469.40
2022-08-25T07:37:48.530Z,101466.20
2022-08-25T07:40:23.237Z,101464.20
2022-08-25T07:42:57.021Z,101465.60
2022-08-25T07:45:30.742Z,101472.20
2022-08-25T07:48:03.726Z,101470.40
2022-08-25T07:50:34.132Z,101470.00
2022-08-25T07:53:02.445Z,101474.80
2022-08-25T07:55:30.694Z,101475.60
2022-08-25T07:58:01.945Z,101477.20
2022-08-25T08:00:34.226Z,101480.80
2022-08-25T08:03:12.943Z,101482.20
2022-08-25T08:05:53.134Z,101489.80
2022-08-25T08:08:21.058Z,101492.60
2022-08-25T08:11:05.436Z,101496.20
2022-08-25T08:13:38.025Z,101499.40
2022-08-25T08:16:15.666Z,101498.20
2022-08-25T08:18:46.006Z,101497.00
2022-08-25T08:21:19.303Z,101492.40
2022-08-25T08:23:50.484Z,101489.20
2022-08-25T08:26:19.319Z,101489.00
2022-08-25T08:28:52.178Z,101490.40
2022-08-25T08:31:23.655Z,101494.20
2022-08-25T08:33:56.882Z,101489.20
2022-08-25T08:36:26.417Z,101492.20
2022-08-25T08:38:55.264Z,101491.40
2022-08-25T08:44:41.701Z,101491.20
2022-08-25T08:47:22.458Z,101487.40
2022-08-25T08:50:39.150Z,101491.00
2022-08-25T08:53:51.792Z,101486.80
2022-08-25T08:56:29.748Z,101488.00
2022-08-25T08:59:18.519Z,101484.20
2022-08-25T09:02:00.508Z,101483.00
2022-08-25T09:04:53.367Z,101485.00
2022-08-25T09:07:42.465Z,101489.80
2022-08-25T09:10:14.025Z,101495.40
2022-08-25T09:13:12.681Z,101489.20
2022-08-25T09:16:57.912Z,101490.20
2022-08-25T09:20:02.647Z,101482.80
2022-08-25T09:23:07.899Z,101476.80
2022-08-25T09:25:53.316Z,101466.40
2022-08-25T09:28:52.275Z,101462.40
2022-08-25T09:31:29.987Z,101458.00
2022-08-25T09:34:07.802Z,101454.00
2022-08-25T09:36:49.704Z,101449.60
2022-08-25T09:39:18.304Z,101447.80
2022-08-25T09:41:59.342Z,101446.80
2022-08-25T09:44:54.218Z,101444.20
2022-08-25T09:47:33.231Z,101435.60
2022-08-25T09:50:13.039Z,101428.60
2022-08-25T09:53:40.888Z,101426.40
2022-08-25T09:56:24.484Z,101423.80
2022-08-25T09:59:34.297Z,101423.00
2022-08-25T10:02:31.409Z,101413.40
2022-08-25T10:05:26.311Z,101413.80
2022-08-25T10:08:14.599Z,101414.40
2022-08-25T10:10:53.576Z,101413.80
2022-08-25T10:13:42.966Z,101410.60
2022-08-25T10:16:33.639Z,101408.80
2022-08-25T10:19:10.907Z,101392.40
2022-08-25T10:21:42.464Z,101379.00
2022-08-25T10:24:13.674Z,101372.60
2022-08-25T10:27:06.436Z,101370.00
2022-08-25T10:30:12.860Z,101364.40
2022-08-25T10:33:29.119Z,101356.00
2022-08-25T10:36:26.013Z,101357.20
2022-08-25T10:39:03.096Z,101362.80
2022-08-25T10:42:06.842Z,101373.60
2022-08-25T10:45:16.607Z,101373.80
2022-08-25T10:48:23.810Z,101366.20
2022-08-25T10:51:27.941Z,101364.00
2022-08-25T10:54:31.564Z,101363.40
2022-08-25T10:57:36.526Z,101366.00
2022-08-25T11:00:31.470Z,101366.40
2022-08-25T11:03:25.600Z,101359.40
2022-08-25T11:06:03.554Z,101364.20
2022-08-25T11:08:42.576Z,101365.40
2022-08-25T11:11:22.144Z,101369.00
2022-08-25T11:14:11.100Z,101373.80
2022-08-25T11:17:02.290Z,101371.60
2022-08-25T11:19:38.666Z,101367.00
2022-08-25T11:22:42.835Z,101361.20
2022-08-25T11:25:26.434Z,101360.00
2022-08-25T11:28:10.667Z,101358.60
2022-08-25T11:30:40.471Z,101353.80
2022-08-25T11:33:19.562Z,101351.80
2022-08-25T11:35:57.197Z,101342.20
2022-08-25T11:39:09.918Z,101334.20
2022-08-25T11:42:10.390Z,101338.40
2022-08-25T11:45:36.091Z,101338.00
2022-08-25T11:48:37.130Z,101337.00
2022-08-25T11:51:40.574Z,101335.80
2022-08-25T11:54:41.723Z,101345.20
2022-08-25T11:57:17.124Z,101337.60
2022-08-25T11:59:57.746Z,101334.60
2022-08-25T12:02:32.723Z,101338.60
2022-08-25T12:05:30.442Z,101345.40
2022-08-25T12:08:33.897Z,101344.80
2022-08-25T12:11:36.692Z,101340.00
2022-08-25T12:14:28.448Z,101343.40
2022-08-25T12:17:31.815Z,101341.60
2022-08-25T12:20:01.988Z,101343.20
2022-08-25T12:22:35.022Z,101351.20
2022-08-25T12:25:34.321Z,101351.40
2022-08-25T12:28:52.611Z,101351.60
2022-08-25T12:32:09.282Z,101352.60
2022-08-25T12:35:23.259Z,101350.40
2022-08-25T12:38:14.058Z,101357.40
2022-08-25T12:40:46.062Z,101355.80
2022-08-25T12:43:33.319Z,101351.60
2022-08-25T12:46:21.380Z,101350.80
2022-08-25T12:49:33.168Z,101344.00
2022-08-25T12:52:28.750Z,101337.60
2022-08-25T12:55:10.048Z,101335.80
2022-08-25T12:57:59.050Z,101340.20
2022-08-25T13:00:37.911Z,101338.60
2022-08-25T13:03:31.069Z,101343.40
2022-08-25T13:07:00.235Z,101340.60
2022-08-25T13:09:59.480Z,101342.80
2022-08-25T13:12:52.885Z,101339.80
2022-08-25T13:15:40.981Z,101338.20
2022-08-25T13:18:26.940Z,101348.40
2022-08-25T13:21:10.111Z,101344.20
2022-08-25T13:23:45.786Z,101346.00
2022-08-25T13:26:25.967Z,101349.00
2022-08-25T13:30:04.216Z,101347.80
2022-08-25T13:32:50.285Z,101338.00
2022-08-25T13:36:41.365Z,101332.80
2022-08-25T13:39:56.755Z,101333.20
2022-08-25T13:42:55.875Z,101330.80
2022-08-25T13:46:04.025Z,101325.20
2022-08-25T13:49:25.251Z,101317.40
2022-08-25T13:52:35.560Z,101309.00
2022-08-25T13:56:10.823Z,101302.40
2022-08-25T13:59:22.670Z,101302.00
2022-08-25T14:02:06.085Z,101296.20
2022-08-25T14:04:50.487Z,101294.80
2022-08-25T14:07:48.344Z,101301.40
2022-08-25T14:10:51.566Z,101297.20
2022-08-25T14:13:32.981Z,101296.80
2022-08-25T14:16:17.891Z,101296.00
2022-08-25T14:19:30.057Z,101300.40
2022-08-25T14:22:22.844Z,101299.00
2022-08-25T14:25:11.934Z,101299.60
2022-08-25T14:28:06.957Z,101299.20
2022-08-25T14:30:46.584Z,101296.80
2022-08-25T14:33:19.810Z,101301.40
2022-08-25T14:35:52.269Z,101298.60
2022-08-25T14:38:24.196Z,101293.40
2022-08-25T14:40:59.263Z,101292.40
2022-08-25T14:43:32.398Z,101291.20
2022-08-25T14:47:06.858Z,101286.60
2022-08-25T14:50:10.907Z,101282.00
2022-08-25T14:53:11.784Z,101282.80
2022-08-25T14:55:58.937Z,101282.40
2022-08-25T14:58:33.919Z,101282.00
2022-08-25T15:01:07.497Z,101283.20
2022-08-25T15:03:43.914Z,101282.60
2022-08-25T15:06:27.053Z,101281.60
2022-08-25T15:09:13.190Z,101279.80
2022-08-25T15:11:46.479Z,101283.00
2022-08-25T15:14:17.585Z,101283.80
2022-08-25T15:16:51.223Z,101277.40
2022-08-25T15:19:23.867Z,101281.80
2022-08-25T15:21:53.026Z,101271.40
2022-08-25T15:24:23.136Z,101277.20
2022-08-25T15:27:05.860Z,101279.40
2022-08-25T15:29:45.084Z,101282.20
2022-08-25T15:32:16.233Z,101276.60
2022-08-25T15:34:46.557Z,101276.60
2022-08-25T15:37:22.193Z,101271.00
2022-08-25T15:40:10.912Z,101269.40
2022-08-25T15:42:42.803Z,101262.60
2022-08-25T15:45:14.779Z,101260.80
2022-08-25T15:47:42.629Z,101257.00
2022-08-25T15:50:16.254Z,101254.20
2022-08-25T15:52:47.382Z,101253.00
2022-08-25T15:55:24.442Z,101249.40
2022-08-25T15:57:53.745Z,101246.60
2022-08-25T16:00:42.966Z,101243.20
2022-08-25T16:03:34.613Z,101243.80
2022-08-25T16:06:12.671Z,101243.80
2022-08-25T16:08:42.621Z,101239.00
2022-08-25T16:11:30.906Z,101232.60
2022-08-25T16:13:59.474Z,101226.60
2022-08-25T16:16:30.514Z,101225.00
2022-08-25T16:19:00.242Z,101218.40
2022-08-25T16:21:42.218Z,101220.20
2022-08-25T16:24:21.456Z,101221.80
2022-08-25T16:26:50.477Z,101226.00
2022-08-25T16:29:21.051Z,101220.80
2022-08-25T16:31:53.455Z,101216.40
2022-08-25T16:34:30.884Z,101217.40
2022-08-25T16:37:14.950Z,101217.20
2022-08-25T16:39:56.456Z,101216.00
2022-08-25T16:42:26.094Z,101218.80
2022-08-25T16:44:58.727Z,101222.60
2022-08-25T16:47:32.955Z,101223.00
2022-08-25T16:50:17.202Z,101225.80
2022-08-25T16:53:23.956Z,101219.20
2022-08-25T16:56:20.339Z,101217.40
2022-08-25T16:59:16.476Z,101220.00
2022-08-25T17:02:23.024Z,101216.80
2022-08-25T17:05:02.302Z,101207.40
2022-08-25T17:07:49.810Z,101214.20
2022-08-25T17:10:23.442Z,101217.80
2022-08-25T17:12:54.145Z,101215.00
2022-08-25T17:15:35.040Z,101219.40
2022-08-25T17:18:03.778Z,101222.20
2022-08-25T17:20:33.876Z,101221.40
2022-08-25T17:23:17.351Z,101214.60
2022-08-25T17:26:00.643Z,101212.20
2022-08-25T17:28:36.364Z,101218.40
2022-08-25T17:31:06.122Z,101217.00
2022-08-25T17:33:38.332Z,101219.60
2022-08-25T17:36:16.606Z,101216.20
2022-08-25T17:38:47.239Z,101214.40
2022-08-25T17:41:19.759Z,101216.60
2022-08-25T17:43:50.875Z,101214.80
2022-08-25T17:46:25.068Z,101219.20
2022-08-25T17:49:01.350Z,101215.80
2022-08-25T17:51:31.768Z,101215.60
2022-08-25T17:54:00.785Z,101213.80
2022-08-25T17:56:29.342Z,101216.60
2022-08-25T17:58:57.616Z,101211.40
2022-08-25T18:01:33.814Z,101214.60
2022-08-25T18:04:03.419Z,101216.40
2022-08-25T18:06:35.051Z,101212.60
2022-08-25T18:09:06.375Z,101216.60
2022-08-25T18:11:34.667Z,101211.80
2022-08-25T18:14:05.247Z,101214.40
2022-08-25T18:16:33.454Z,101211.40
2022-08-25T18:19:06.588Z,101213.20
2022-08-25T18:21:41.394Z,101214.60
2022-08-25T18:24:17.650Z,101209.60
2022-08-25T18:26:47.593Z,101210.00
2022-08-25T18:29:22.631Z,101209.40
2022-08-25T18:31:57.082Z,101211.20
2022-08-25T18:34:49.314Z,101206.80
2022-08-25T18:38:11.492Z,101208.80
2022-08-25T18:41:37.746Z,101203.80
2022-08-25T18:44:15.431Z,101206.40
2022-08-25T18:46:50.529Z,101208.80
2022-08-25T18:49:18.933Z,101206.60
2022-08-25T18:51:48.873Z,101206.40
2022-08-25T18:54:23.134Z,101205.80
2022-08-25T18:56:55.024Z,101206.40
2022-08-25T18:59:23.693Z,101206.00
2022-08-25T19:01:54.242Z,101203.60
2022-08-25T19:04:28.317Z,101210.00
2022-08-25T19:07:04.682Z,101207.80
2022-08-25T19:09:36.736Z,101205.00
2022-08-25T19:12:06.122Z,101208.20
2022-08-25T19:14:39.806Z,101208.40
2022-08-25T19:17:08.408Z,101212.20
2022-08-25T19:19:36.794Z,101207.60
2022-08-25T19:22:16.610Z,101211.60
2022-08-25T19:24:56.745Z,101209.60
2022-08-25T19:27:25.251Z,101200.40
2022-08-25T19:29:53.943Z,101197.80
2022-08-25T19:32:22.525Z,101197.00
2022-08-25T19:34:54.977Z,101198.40
2022-08-25T19:37:28.622Z,101194.20
2022-08-25T19:39:59.969Z,101198.20
2022-08-25T19:42:35.108Z,101205.40
2022-08-25T19:45:12.158Z,101202.80
2022-08-25T19:47:43.203Z,101199.60
2022-08-25T19:50:16.791Z,101200.20
2022-08-25T19:52:58.433Z,101195.00
2022-08-25T19:55:27.454Z,101195.20
2022-08-25T19:57:58.457Z,101194.40
2022-08-25T20:00:37.232Z,101194.00
2022-08-25T20:03:07.992Z,101192.60
2022-08-25T20:05:39.486Z,101187.80
2022-08-25T20:08:07.820Z,101188.40
2022-08-25T20:10:41.793Z,101186.60
2022-08-25T20:13:10.625Z,101188.00
2022-08-25T20:15:39.444Z,101183.60
2022-08-25T20:18:08.458Z,101185.80
2022-08-25T20:20:39.213Z,101186.20
2022-08-25T20:23:28.619Z,101184.20
2022-08-25T20:26:00.276Z,101176.20
2022-08-25T20:28:28.559Z,101176.60
2022-08-25T20:30:56.814Z,101180.20
2022-08-25T20:33:26.073Z,101182.60
2022-08-25T20:35:58.516Z,101184.40
2022-08-25T20:38:29.926Z,101180.80
2022-08-25T20:40:59.528Z,101186.20
2022-08-25T20:43:29.752Z,101179.00
2022-08-25T20:46:02.728Z,101176.20
2022-08-25T20:48:34.137Z,101178.40
2022-08-25T20:51:08.851Z,101178.20
2022-08-25T20:53:41.804Z,101175.80
2022-08-25T20:56:14.971Z,101178.80
2022-08-25T20:58:47.649Z,101178.60
2022-08-25T21:01:23.101Z,101182.60
2022-08-25T21:03:52.012Z,101182.00
2022-08-25T21:06:20.036Z,101178.20
2022-08-25T21:08:58.204Z,101177.20
2022-08-25T21:11:32.886Z,101179.00
2022-08-25T21:14:06.042Z,101179.00
2022-08-25T21:16:38.290Z,101181.40
2022-08-25T21:19:12.438Z,101178.00
2022-08-25T21:21:41.176Z,101172.60
2022-08-25T21:24:13.770Z,101172.60
2022-08-25T21:26:48.458Z,101171.80
2022-08-25T21:29:20.749Z,101176.40
2022-08-25T21:31:53.120Z,101178.00
2022-08-25T21:34:26.522Z,101173.60
2022-08-25T21:36:59.405Z,101172.80
2022-08-25T21:39:30.028Z,101167.20
2022-08-25T21:42:00.687Z,101169.40
2022-08-25T21:44:33.916Z,101164.00
2022-08-25T21:47:03.045Z,101159.20
2022-08-25T21:49:37.377Z,101160.40
2022-08-25T21:52:05.968Z,101161.00
2022-08-25T21:54:34.240Z,101155.40
2022-08-25T21:57:07.789Z,101154.00
2022-08-25T21:59:41.349Z,101155.00
2022-08-25T22:02:17.035Z,101148.80
2022-08-25T22:04:53.477Z,101151.60
2022-08-25T22:07:26.470Z,101145.20
2022-08-25T22:09:54.780Z,101150.20
2022-08-25T22:12:25.895Z,101149.60
2022-08-25T22:14:57.260Z,101144.60
2022-08-25T22:17:27.709Z,101143.60
2022-08-25T22:19:55.914Z,101137.40
2022-08-25T22:22:24.078Z,101141.80
2022-08-25T22:24:56.519Z,101134.60
2022-08-25T22:27:25.525Z,101127.40
2022-08-25T22:29:53.448Z,101131.20
2022-08-25T22:32:21.320Z,101123.20
2022-08-25T22:34:49.889Z,101122.60
2022-08-25T22:37:18.051Z,101124.80
2022-08-25T22:39:46.872Z,101123.80
2022-08-25T22:42:15.547Z,101118.40
2022-08-25T22:44:43.617Z,101113.40
2022-08-25T22:47:12.547Z,101109.00
2022-08-25T22:49:41.053Z,101103.40
2022-08-25T22:52:09.430Z,101101.40
2022-08-25T22:54:41.027Z,101096.20
2022-08-25T22:57:09.410Z,101101.20
2022-08-25T22:59:38.760Z,101099.60
2022-08-25T23:02:07.694Z,101088.40
2022-08-25T23:04:41.135Z,101086.40
2022-08-25T23:07:11.632Z,101085.60
2022-08-25T23:09:40.049Z,101078.80
2022-08-25T23:12:09.283Z,101075.80
2022-08-25T23:14:42.239Z,101065.20
2022-08-25T23:17:12.522Z,101063.00
2022-08-25T23:19:40.585Z,101065.20
2022-08-25T23:22:11.677Z,101062.20
2022-08-25T23:24:47.991Z,101056.40
2022-08-25T23:27:19.861Z,101057.00
2022-08-25T23:29:50.183Z,101059.00
2022-08-25T23:32:18.580Z,101056.20
2022-08-25T23:34:47.458Z,101057.80
2022-08-25T23:37:18.503Z,101058.80
2022-08-25T23:39:49.442Z,101054.80
2022-08-25T23:42:20.017Z,101058.60
2022-08-25T23:44:49.648Z,101052.40
2022-08-25T23:47:21.148Z,101053.20
2022-08-25T23:49:49.308Z,101048.40
2022-08-25T23:52:17.774Z,101046.00
2022-08-25T23:54:47.378Z,101045.40
2022-08-25T23:57:15.264Z,101038.40
2022-08-25T23:59:43.773Z,101032.60
